Time;durP1;ratioP1;P1;durP2;ratioP2;P2;SDS_P1;SDS_P2;PMS_P1;PMS_P2;Temp;Humidity;BMP_temperature;BMP_pressure;BME280_temperature;BME280_humidity;BME280_pressure;Samples;Min_cycle;Max_cycle;Signal;HPM_P1;HPM_P2
2022/01/29 00:00:47;;;;;;;50.67;23.73;;;;;;;-145.18;100.00;46652.59;4949197;29;20289;-72
2022/01/29 00:03:12;;;;;;;53.07;22.17;;;;;;;-145.18;100.00;46652.59;4950128;29;20062;-73
2022/01/29 00:05:37;;;;;;;58.83;26.27;;;;;;;-145.18;100.00;46656.50;4949599;29;20470;-73
2022/01/29 00:08:03;;;;;;;42.67;21.67;;;;;;;-145.18;100.00;46652.59;4949294;29;20039;-73
2022/01/29 00:10:30;;;;;;;51.53;26.07;;;;;;;-145.18;100.00;46656.50;4949889;29;20078;-72
2022/01/29 00:12:56;;;;;;;49.90;24.03;;;;;;;-145.18;100.00;46658.44;4949649;29;20048;-76
2022/01/29 00:15:21;;;;;;;56.07;27.57;;;;;;;-145.18;100.00;46660.41;4949735;29;20296;-75
2022/01/29 00:17:47;;;;;;;41.03;17.63;;;;;;;-145.18;100.00;46660.41;4949046;29;20151;-75
2022/01/29 00:20:12;;;;;;;49.07;24.60;;;;;;;-145.18;100.00;46654.53;4949612;29;20039;-75
2022/01/29 00:22:37;;;;;;;45.73;24.00;;;;;;;-145.18;100.00;46654.53;4949707;29;20134;-76
2022/01/29 00:25:03;;;;;;;41.57;23.27;;;;;;;-145.18;100.00;46660.41;4948195;29;20156;-76
2022/01/29 00:27:33;;;;;;;40.73;19.93;;;;;;;-145.18;100.00;46656.50;4949793;29;20130;-76
2022/01/29 00:30:02;;;;;;;53.80;24.03;;;;;;;-145.18;100.00;46660.41;4948330;29;20620;-75
2022/01/29 00:32:29;;;;;;;46.30;21.80;;;;;;;-145.18;100.00;46658.44;4948729;29;20285;-75
2022/01/29 00:34:54;;;;;;;54.37;26.60;;;;;;;-145.18;100.00;46660.41;4949399;29;20277;-75
2022/01/29 00:37:20;;;;;;;55.70;24.73;;;;;;;-145.18;100.00;46660.41;4949048;29;20277;-74
2022/01/29 00:39:45;;;;;;;56.23;27.63;;;;;;;-145.18;100.00;46677.97;4949308;29;20047;-74
2022/01/29 00:42:10;;;;;;;58.33;24.47;;;;;;;-145.18;100.00;46652.59;4931975;29;20515;-75
2022/01/29 00:44:36;;;;;;;55.93;25.70;;;;;;;-145.18;100.00;46660.41;4949986;29;20051;-75
2022/01/29 00:47:01;;;;;;;56.40;26.90;;;;;;;-145.18;100.00;46674.06;4948909;29;20070;-75
2022/01/29 00:49:27;;;;;;;53.70;25.37;;;;;;;-145.18;100.00;46695.56;4949399;29;20122;-75
2022/01/29 00:51:52;;;;;;;55.37;27.33;;;;;;;-145.18;100.00;46699.47;4948788;29;20134;-74
2022/01/29 00:54:18;;;;;;;58.53;25.87;;;;;;;-145.18;100.00;46701.41;4949526;29;20039;-74
2022/01/29 00:56:43;;;;;;;60.20;28.03;;;;;;;-145.18;100.00;46705.31;4948603;29;20051;-74
2022/01/29 00:59:08;;;;;;;61.73;29.37;;;;;;;-145.18;100.00;46701.41;4948599;29;20043;-74
2022/01/29 01:01:34;;;;;;;63.63;29.77;;;;;;;-145.18;100.00;46717.03;4948818;29;20059;-74
2022/01/29 01:04:00;;;;;;;63.73;30.03;;;;;;;-145.18;100.00;46724.84;4950234;28;20130;-74
2022/01/29 01:06:25;;;;;;;54.30;25.83;;;;;;;-145.18;100.00;46726.81;4951919;29;20301;-74
2022/01/29 01:08:51;;;;;;;48.67;25.63;;;;;;;-145.18;100.00;46724.84;4952374;29;20039;-75
2022/01/29 01:11:16;;;;;;;57.63;27.87;;;;;;;-145.18;100.00;46726.81;4935192;29;20125;-74
2022/01/29 01:13:42;;;;;;;59.80;27.77;;;;;;;-145.18;100.00;46734.63;4952656;29;20665;-75
2022/01/29 01:16:07;;;;;;;58.53;27.37;;;;;;;-145.18;100.00;46734.63;4952034;29;20297;-75
2022/01/29 01:18:32;;;;;;;37.63;17.37;;;;;;;-145.18;100.00;46726.81;4952474;29;20050;-75
2022/01/29 01:20:58;;;;;;;57.47;27.93;;;;;;;-145.18;100.00;46734.63;4951660;29;20054;-74
2022/01/29 01:23:23;;;;;;;54.47;26.57;;;;;;;-145.18;100.00;46726.81;4952346;29;20134;-74
2022/01/29 01:25:49;;;;;;;63.63;27.43;;;;;;;-145.18;100.00;46728.75;4952131;29;20043;-74
2022/01/29 01:28:15;;;;;;;56.73;25.07;;;;;;;-145.18;100.00;46732.66;4952255;29;20089;-74
2022/01/29 01:30:41;;;;;;;62.77;29.47;;;;;;;-145.18;100.00;46734.63;4952496;29;20047;-74
2022/01/29 01:33:06;;;;;;;60.70;29.83;;;;;;;-145.18;100.00;46724.84;4951853;29;20035;-75
2022/01/29 01:35:42;;;;;;;44.03;20.60;;;;;;;-145.18;100.00;46726.81;4952252;29;20332;-75
2022/01/29 01:38:38;;;;;;;;;;;;;;;-145.18;100.00;46724.84;4952215;29;20042;-74
2022/01/29 01:41:01;;;;;;;55.13;25.37;;;;;;;-145.18;100.00;46724.84;4951746;29;20371;-74
2022/01/29 01:43:28;;;;;;;64.30;29.20;;;;;;;-145.18;100.00;46720.94;4952412;29;20277;-74
2022/01/29 01:45:54;;;;;;;60.63;28.33;;;;;;;-145.18;100.00;46726.81;4951861;29;20278;-73
2022/01/29 01:48:19;;;;;;;53.10;24.33;;;;;;;-145.18;100.00;46722.91;4951148;29;20285;-74
2022/01/29 01:50:46;;;;;;;62.67;28.70;;;;;;;-145.18;100.00;46720.94;4951656;29;20344;-73
2022/01/29 01:53:12;;;;;;;51.57;21.97;;;;;;;-145.18;100.00;46724.84;4951519;29;20059;-74
2022/01/29 01:55:37;;;;;;;47.10;22.57;;;;;;;-145.18;100.00;46719.00;4951761;29;20321;-73
2022/01/29 01:58:03;;;;;;;58.77;28.43;;;;;;;-145.18;100.00;46720.94;4951556;29;20049;-73
2022/01/29 02:00:30;;;;;;;53.27;25.97;;;;;;;-145.18;100.00;46713.13;4951330;29;20059;-74
2022/01/29 02:02:55;;;;;;;54.57;25.23;;;;;;;-145.18;100.00;46719.00;4951213;29;20348;-74
2022/01/29 02:05:21;;;;;;;53.60;26.13;;;;;;;-145.18;100.00;46707.28;4951510;29;20822;-74
2022/01/29 02:07:47;;;;;;;59.97;27.07;;;;;;;-145.18;100.00;46711.19;4950955;29;20047;-74
2022/01/29 02:10:13;;;;;;;58.47;27.60;;;;;;;-145.18;100.00;46720.94;4951523;29;20036;-74
2022/01/29 02:12:49;;;;;;;62.33;26.63;;;;;;;-145.18;100.00;46705.31;4951994;29;20118;-75
2022/01/29 02:15:15;;;;;;;56.63;26.20;;;;;;;-145.18;100.00;46707.28;4950022;28;20287;-75
2022/01/29 02:17:41;;;;;;;59.57;28.60;;;;;;;-145.18;100.00;46707.28;4950786;29;20527;-75
2022/01/29 02:20:07;;;;;;;56.37;28.97;;;;;;;-145.18;100.00;46717.03;4951420;29;20281;-74
2022/01/29 02:22:32;;;;;;;52.73;26.80;;;;;;;-145.18;100.00;46705.31;4950987;29;20122;-74
2022/01/29 02:24:58;;;;;;;51.23;25.70;;;;;;;-145.18;100.00;46707.28;4951137;29;20348;-74
2022/01/29 02:27:23;;;;;;;60.87;23.67;;;;;;;-145.18;100.00;46707.28;4950774;29;20039;-73
2022/01/29 02:29:49;;;;;;;59.83;29.70;;;;;;;-145.18;100.00;46701.41;4952017;29;20515;-75
2022/01/29 02:32:15;;;;;;;51.47;22.43;;;;;;;-145.18;100.00;46709.22;4950909;29;20075;-74
2022/01/29 02:34:43;;;;;;;50.73;24.73;;;;;;;-145.18;100.00;46701.41;4951139;29;20281;-74
2022/01/29 02:37:09;;;;;;;58.13;27.37;;;;;;;-145.18;100.00;46703.38;4950930;29;20046;-74
2022/01/29 02:39:35;;;;;;;53.87;23.53;;;;;;;-145.18;100.00;46695.56;4950934;29;20278;-74
2022/01/29 02:42:01;;;;;;;69.57;32.13;;;;;;;-145.18;100.00;46703.38;4949971;29;20493;-74
2022/01/29 02:44:26;;;;;;;65.80;30.40;;;;;;;-145.18;100.00;46695.56;4951212;29;20675;-72
2022/01/29 02:46:57;;;;;;;65.57;32.30;;;;;;;-145.18;100.00;46699.47;4950805;29;20283;-74
2022/01/29 02:49:25;;;;;;;72.30;33.33;;;;;;;-145.18;100.00;46695.56;4950855;29;20142;-74
2022/01/29 02:51:56;;;;;;;65.00;31.70;;;;;;;-145.18;100.00;46693.59;4950054;29;20766;-74
2022/01/29 02:54:23;;;;;;;63.77;30.93;;;;;;;-145.18;100.00;46693.59;4950518;29;20285;-74
2022/01/29 02:56:48;;;;;;;56.17;27.40;;;;;;;-145.18;100.00;46701.41;4950051;29;20317;-74
2022/01/29 02:59:14;;;;;;;64.77;30.33;;;;;;;-145.18;100.00;46703.38;4933629;29;20301;-73
2022/01/29 03:04:15;;;;;;;74.43;32.08;;;;;;;-145.18;100.00;46697.50;4960838;23;20248;-72
2022/01/29 03:06:40;;;;;;;64.67;29.60;;;;;;;-145.18;100.00;46693.59;4933585;29;20047;-72
2022/01/29 03:09:06;;;;;;;62.10;30.00;;;;;;;-145.18;100.00;46699.47;4949144;29;20039;-72
2022/01/29 03:11:32;;;;;;;68.73;29.70;;;;;;;-145.18;100.00;46695.56;4949791;29;20773;-72
2022/01/29 03:13:57;;;;;;;68.40;29.17;;;;;;;-145.18;100.00;46689.69;4949306;29;20047;-73
2022/01/29 03:16:23;;;;;;;76.53;33.63;;;;;;;-145.18;100.00;46693.59;4949869;29;20491;-73
2022/01/29 03:18:48;;;;;;;68.40;26.03;;;;;;;-145.18;100.00;46699.47;4949477;29;20157;-72
2022/01/29 03:21:13;;;;;;;71.27;30.87;;;;;;;-145.18;100.00;46691.66;4950374;29;20126;-73
2022/01/29 03:23:39;;;;;;;76.40;32.40;;;;;;;-145.18;100.00;46689.69;4949388;29;20047;-73
2022/01/29 03:26:04;;;;;;;71.40;32.37;;;;;;;-145.18;100.00;46695.56;4948900;28;20102;-73
2022/01/29 03:28:30;;;;;;;79.17;33.07;;;;;;;-145.18;100.00;46691.66;4947933;29;20046;-73
2022/01/29 03:30:56;;;;;;;58.60;26.73;;;;;;;-145.18;100.00;46689.69;4949795;29;20122;-72
2022/01/29 03:33:22;;;;;;;75.67;33.97;;;;;;;-145.18;100.00;46693.59;4948879;29;20356;-71
2022/01/29 03:35:49;;;;;;;57.00;24.00;;;;;;;-145.18;100.00;46693.59;4950340;29;20079;-73
2022/01/29 03:38:15;;;;;;;69.47;31.43;;;;;;;-145.18;100.00;46687.75;4948767;29;20382;-72
2022/01/29 03:40:41;;;;;;;70.73;32.10;;;;;;;-145.18;100.00;46687.75;4949571;29;20286;-72
2022/01/29 03:43:10;;;;;;;64.87;31.47;;;;;;;-145.18;100.00;46689.69;4948962;29;20093;-72
2022/01/29 03:45:36;;;;;;;69.20;30.53;;;;;;;-145.18;100.00;46697.50;4949405;29;20273;-72
2022/01/29 03:48:02;;;;;;;73.00;34.70;;;;;;;-145.18;100.00;46687.75;4948744;29;20289;-73
2022/01/29 03:50:27;;;;;;;68.07;31.63;;;;;;;-145.18;100.00;46687.75;4932204;29;20043;-72
2022/01/29 03:52:53;;;;;;;66.33;32.63;;;;;;;-145.18;100.00;46685.78;4949744;29;20285;-73
2022/01/29 03:55:18;;;;;;;62.40;27.00;;;;;;;-145.18;100.00;46691.66;4949242;29;20047;-73
2022/01/29 03:57:44;;;;;;;64.77;30.37;;;;;;;-145.18;100.00;46687.75;4931604;29;20062;-73
2022/01/29 04:00:10;;;;;;;86.43;33.00;;;;;;;-145.18;100.00;46693.59;4949020;29;20062;-73
2022/01/29 04:02:35;;;;;;;69.73;30.80;;;;;;;-145.18;100.00;46689.69;4948667;28;20121;-73
2022/01/29 04:05:02;;;;;;;63.27;29.67;;;;;;;-145.18;100.00;46695.56;4949175;29;20044;-72
2022/01/29 04:07:27;;;;;;;50.57;24.90;;;;;;;-145.18;100.00;46685.78;4949713;29;20047;-73
2022/01/29 04:09:53;;;;;;;63.87;28.97;;;;;;;-145.18;100.00;46687.75;4949281;29;20288;-73
2022/01/29 04:12:19;;;;;;;68.37;32.87;;;;;;;-145.18;100.00;46685.78;4930899;29;20447;-73
2022/01/29 04:14:44;;;;;;;57.33;24.30;;;;;;;-145.18;100.00;46685.78;4949254;29;20274;-72
2022/01/29 04:17:11;;;;;;;62.53;32.30;;;;;;;-145.18;100.00;46685.78;4948575;29;20058;-72
2022/01/29 04:19:37;;;;;;;62.50;27.73;;;;;;;-145.18;100.00;46681.88;4949240;29;20120;-73
2022/01/29 04:22:05;;;;;;;64.50;32.33;;;;;;;-145.18;100.00;46687.75;4948694;29;20278;-73
2022/01/29 04:24:31;;;;;;;62.90;32.47;;;;;;;-145.18;100.00;46685.78;4949745;29;20276;-73
2022/01/29 04:26:58;;;;;;;63.03;32.30;;;;;;;-145.18;100.00;46695.56;4949000;29;20670;-73
2022/01/29 04:29:24;;;;;;;64.97;28.70;;;;;;;-145.18;100.00;46689.69;4931642;29;20285;-73
2022/01/29 04:32:10;;;;;;;72.80;33.03;;;;;;;-145.18;100.00;46685.78;4948916;29;20289;-73
2022/01/29 04:34:35;;;;;;;71.78;34.22;;;;;;;-145.18;100.00;46693.59;4932083;29;20285;-73
2022/01/29 04:37:01;;;;;;;61.57;30.40;;;;;;;-145.18;100.00;46687.75;4948673;29;20147;-73
2022/01/29 04:39:26;;;;;;;53.33;25.93;;;;;;;-145.18;100.00;46685.78;4952008;28;20043;-73
2022/01/29 04:41:52;;;;;;;59.80;30.10;;;;;;;-145.18;100.00;46687.75;4952485;29;20126;-73
2022/01/29 04:44:17;;;;;;;58.40;30.87;;;;;;;-145.18;100.00;46681.88;4951849;29;20492;-73
2022/01/29 04:46:43;;;;;;;59.87;30.87;;;;;;;-145.18;100.00;46685.78;4953342;29;20043;-73
2022/01/29 04:49:09;;;;;;;58.83;28.80;;;;;;;-145.18;100.00;46683.84;4952007;29;20039;-74
2022/01/29 04:51:34;;;;;;;58.97;30.50;;;;;;;-145.18;100.00;46693.59;4935362;29;20534;-73
2022/01/29 04:53:59;;;;;;;56.90;26.40;;;;;;;-145.18;100.00;46683.84;4951819;29;20531;-73
2022/01/29 04:56:25;;;;;;;56.87;27.33;;;;;;;-145.18;100.00;46689.69;4952316;29;20051;-73
2022/01/29 04:58:50;;;;;;;53.77;25.80;;;;;;;-145.18;100.00;46689.69;4952014;29;20039;-73
2022/01/29 05:01:15;;;;;;;46.13;26.37;;;;;;;-145.18;100.00;46691.66;4952576;29;20460;-73
2022/01/29 05:03:41;;;;;;;51.97;27.17;;;;;;;-145.18;100.00;46685.78;4951775;28;20050;-73
2022/01/29 05:06:09;;;;;;;55.70;26.83;;;;;;;-145.18;100.00;46687.75;4951921;29;20066;-73
2022/01/29 05:08:36;;;;;;;48.57;25.43;;;;;;;-145.18;100.00;46689.69;4951783;29;20031;-73
2022/01/29 05:11:02;;;;;;;51.07;26.47;;;;;;;-145.18;100.00;46687.75;4951935;29;20266;-73
2022/01/29 05:13:29;;;;;;;52.50;25.23;;;;;;;-145.18;100.00;46683.84;4951786;29;20277;-73
2022/01/29 05:26:52;;;;;;;46.60;23.53;;;;;;;-145.18;100.00;46689.69;4951891;29;20289;-74
2022/01/29 05:29:17;;;;;;;50.87;23.47;;;;;;;-145.18;100.00;46693.59;4951046;29;20262;-73
2022/01/29 05:31:43;;;;;;;42.17;22.90;;;;;;;-145.18;100.00;46693.59;4951879;29;20300;-73
2022/01/29 05:34:09;;;;;;;38.80;20.37;;;;;;;-145.18;100.00;46687.75;4951036;29;20492;-73
2022/01/29 05:36:34;;;;;;;43.67;21.67;;;;;;;-145.18;100.00;46691.66;4951801;29;20261;-73
2022/01/29 05:39:00;;;;;;;34.77;19.57;;;;;;;-145.18;100.00;46683.84;4950862;29;20495;-73
2022/01/29 05:41:28;;;;;;;38.03;19.47;;;;;;;-145.18;100.00;46685.78;4951991;29;20039;-73
2022/01/29 05:43:53;;;;;;;40.13;17.97;;;;;;;-145.18;100.00;46689.69;4951210;29;20046;-73
2022/01/29 05:46:19;;;;;;;36.23;17.13;;;;;;;-145.18;100.00;46697.50;4951182;29;20900;-73
2022/01/29 05:48:44;;;;;;;33.77;16.17;;;;;;;-145.18;100.00;46697.50;4951134;28;20081;-73
2022/01/29 05:51:11;;;;;;;35.07;16.50;;;;;;;-145.18;100.00;46689.69;4950718;29;20046;-73
2022/01/29 05:53:36;;;;;;;33.57;15.23;;;;;;;-145.18;100.00;46699.47;4950743;29;20043;-74
2022/01/29 05:56:02;;;;;;;35.17;15.93;;;;;;;-145.18;100.00;46695.56;4951162;29;20272;-70
2022/01/29 05:58:28;;;;;;;40.73;15.77;;;;;;;-145.18;100.00;46685.78;4951478;29;20051;-73
2022/01/29 06:00:53;;;;;;;32.27;13.43;;;;;;;-145.18;100.00;46699.47;4951089;29;20050;-73
2022/01/29 06:03:19;;;;;;;32.73;14.00;;;;;;;-145.18;100.00;46691.66;4949850;29;20130;-73
2022/01/29 06:05:44;;;;;;;30.30;14.30;;;;;;;-145.18;100.00;46689.69;4951139;29;20043;-73
2022/01/29 06:08:09;;;;;;;30.20;13.30;;;;;;;-145.18;100.00;46689.69;4950570;29;20122;-73
2022/01/29 06:10:35;;;;;;;30.03;13.27;;;;;;;-145.18;100.00;46695.56;4934478;29;20075;-73
2022/01/29 06:13:03;;;;;;;33.60;13.27;;;;;;;-145.18;100.00;46695.56;4950236;29;20046;-73
2022/01/29 06:15:31;;;;;;;36.17;14.17;;;;;;;-145.18;100.00;46687.75;4950957;29;20066;-73
2022/01/29 06:17:56;;;;;;;29.63;12.37;;;;;;;-145.18;100.00;46689.69;4950316;29;20308;-73
2022/01/29 06:20:22;;;;;;;30.83;14.00;;;;;;;-145.18;100.00;46695.56;4933333;29;20913;-73
2022/01/29 06:22:47;;;;;;;34.63;12.23;;;;;;;-145.18;100.00;46691.66;4950158;29;20054;-73
2022/01/29 06:25:13;;;;;;;29.60;12.93;;;;;;;-145.18;100.00;46695.56;4950464;29;20620;-73
2022/01/29 06:27:39;;;;;;;32.27;10.90;;;;;;;-145.18;100.00;46689.69;4950987;29;20044;-73
2022/01/29 06:30:05;;;;;;;27.33;11.00;;;;;;;-145.18;100.00;46691.66;4950266;29;20035;-73
2022/01/29 06:32:30;;;;;;;26.13;9.80;;;;;;;-145.18;100.00;46693.59;4932902;29;20036;-72
2022/01/29 06:34:55;;;;;;;21.20;9.43;;;;;;;-145.18;100.00;46691.66;4950180;29;20309;-72
2022/01/29 06:37:21;;;;;;;28.93;11.17;;;;;;;-145.18;100.00;46693.59;4950128;29;20500;-72
2022/01/29 06:39:47;;;;;;;27.73;9.37;;;;;;;-145.18;100.00;46687.75;4950054;29;20514;-72
2022/01/29 06:42:12;;;;;;;28.07;8.97;;;;;;;-145.18;100.00;46693.59;4950194;29;20047;-72
2022/01/29 06:44:37;;;;;;;27.23;9.47;;;;;;;-145.18;100.00;46695.56;4949629;29;20226;-72
2022/01/29 06:47:03;;;;;;;26.03;8.30;;;;;;;-145.18;100.00;46695.56;4950000;29;20066;-71
2022/01/29 06:49:28;;;;;;;25.53;9.30;;;;;;;-145.18;100.00;46695.56;4949914;29;20095;-72
2022/01/29 06:51:54;;;;;;;25.53;9.07;;;;;;;-145.18;100.00;46685.78;4949685;29;20059;-72
2022/01/29 06:54:19;;;;;;;19.87;6.83;;;;;;;-145.18;100.00;46687.75;4940643;29;20079;-72
2022/01/29 06:56:45;;;;;;;15.73;6.17;;;;;;;-145.18;100.00;46687.75;4950731;29;20396;-72
2022/01/29 06:59:10;;;;;;;28.13;8.57;;;;;;;-145.18;100.00;46691.66;4949360;29;20047;-72
2022/01/29 07:01:35;;;;;;;23.50;8.67;;;;;;;-145.18;100.00;46693.59;4948953;28;20723;-72
2022/01/29 07:04:01;;;;;;;25.57;8.17;;;;;;;-145.18;100.00;46691.66;4948577;29;20050;-72
2022/01/29 07:06:27;;;;;;;24.27;8.60;;;;;;;-145.18;100.00;46681.88;4948287;29;20047;-71
2022/01/29 07:08:52;;;;;;;18.33;7.93;;;;;;;-145.18;100.00;46697.50;4930356;29;20144;-72
2022/01/29 07:11:20;;;;;;;20.23;8.20;;;;;;;-145.18;100.00;46683.84;4931135;29;20055;-72
2022/01/29 07:13:46;;;;;;;24.53;10.63;;;;;;;-145.18;100.00;46679.94;4929885;29;20044;-72
2022/01/29 07:16:11;;;;;;;29.13;12.13;;;;;;;-145.18;100.00;46685.78;4930267;29;20285;-72
2022/01/29 07:18:36;;;;;;;35.53;13.37;;;;;;;-145.18;100.00;46691.66;4929939;29;20497;-72
2022/01/29 07:21:02;;;;;;;38.40;13.50;;;;;;;-145.18;100.00;46689.69;4930508;29;20090;-72
2022/01/29 07:23:28;;;;;;;31.13;13.47;;;;;;;-145.18;100.00;46683.84;4930151;29;20035;-72
2022/01/29 07:25:53;;;;;;;34.13;13.13;;;;;;;-145.18;100.00;46685.78;4931142;29;20070;-72
2022/01/29 07:28:18;;;;;;;33.43;14.87;;;;;;;-145.18;100.00;46697.50;4928967;29;20126;-72
2022/01/29 07:30:44;;;;;;;27.77;13.67;;;;;;;-145.18;100.00;46689.69;4930222;29;20520;-72
2022/01/29 07:33:09;;;;;;;28.20;14.50;;;;;;;-145.18;100.00;46681.88;4929697;29;20063;-72
2022/01/29 07:35:34;;;;;;;39.23;13.03;;;;;;;-145.18;100.00;46681.88;4930238;29;20130;-71
2022/01/29 07:38:00;;;;;;;30.40;12.57;;;;;;;-145.18;100.00;46685.78;4929259;29;20933;-72
2022/01/29 07:40:25;;;;;;;24.50;11.57;;;;;;;-145.18;100.00;46691.66;4930619;29;20082;-72
2022/01/29 07:42:50;;;;;;;24.53;9.73;;;;;;;-145.18;100.00;46691.66;4929813;29;20058;-72
2022/01/29 07:45:16;;;;;;;23.93;11.00;;;;;;;-145.18;100.00;46687.75;4929671;29;20538;-72
2022/01/29 07:47:42;;;;;;;25.40;10.77;;;;;;;-145.18;100.00;46693.59;4912979;29;20040;-72
2022/01/29 07:50:07;;;;;;;22.33;10.70;;;;;;;-145.18;100.00;46689.69;4928906;29;20035;-72
2022/01/29 07:52:33;;;;;;;19.93;9.73;;;;;;;-145.18;100.00;46685.78;4930072;29;20775;-72
2022/01/29 07:54:58;;;;;;;26.67;11.13;;;;;;;-145.18;100.00;46679.94;4929976;29;20778;-72
2022/01/29 07:57:23;;;;;;;30.17;10.27;;;;;;;-145.18;100.00;46687.75;4930164;29;20035;-72
2022/01/29 07:59:49;;;;;;;22.00;8.63;;;;;;;-145.18;100.00;46683.84;4928291;29;20086;-72
2022/01/29 08:02:14;;;;;;;29.60;8.33;;;;;;;-145.18;100.00;46693.59;4929654;29;20028;-72
2022/01/29 08:04:39;;;;;;;26.37;10.30;;;;;;;-145.18;100.00;46691.66;4929234;29;20568;-72
2022/01/29 08:07:05;;;;;;;23.93;9.87;;;;;;;-145.18;100.00;46681.88;4929672;29;20035;-71
2022/01/29 08:09:30;;;;;;;21.07;10.47;;;;;;;-145.18;100.00;46693.59;4929971;29;20493;-71
2022/01/29 08:11:55;;;;;;;27.80;9.67;;;;;;;-145.18;100.00;46691.66;4929837;29;20074;-72
2022/01/29 08:14:21;;;;;;;20.03;8.57;;;;;;;-145.18;100.00;46697.50;4932748;29;20432;-72
2022/01/29 08:16:46;;;;;;;21.03;9.37;;;;;;;-145.18;100.00;46689.69;4933921;29;20043;-71
2022/01/29 08:19:11;;;;;;;19.67;10.23;;;;;;;-145.18;100.00;46693.59;4932876;29;20063;-71
2022/01/29 08:21:38;;;;;;;22.50;8.23;;;;;;;-145.18;100.00;46691.66;4934300;29;20071;-72
2022/01/29 08:24:05;;;;;;;23.30;9.17;;;;;;;-145.18;100.00;46693.59;4933058;29;20043;-71
2022/01/29 08:26:31;;;;;;;22.10;8.57;;;;;;;-145.18;100.00;46695.56;4933785;29;20285;-71
2022/01/29 08:28:56;;;;;;;19.33;8.27;;;;;;;-145.18;100.00;46693.59;4933054;29;20760;-72
2022/01/29 08:31:22;;;;;;;14.50;7.53;;;;;;;-145.18;100.00;46689.69;4933362;29;20118;-71
2022/01/29 08:33:47;;;;;;;18.20;7.10;;;;;;;-145.18;100.00;46691.66;4915822;29;20039;-71
2022/01/29 08:36:12;;;;;;;18.13;7.20;;;;;;;-145.18;100.00;46699.47;4933059;29;20043;-71
2022/01/29 08:38:38;;;;;;;21.83;6.77;;;;;;;-145.18;100.00;46695.56;4933638;29;20113;-71
2022/01/29 08:41:04;;;;;;;15.37;6.23;;;;;;;-145.18;100.00;46699.47;4933122;29;20040;-71
2022/01/29 08:43:29;;;;;;;22.37;6.50;;;;;;;-145.18;100.00;46697.50;4933213;29;20032;-72
2022/01/29 08:45:55;;;;;;;23.60;6.50;;;;;;;-145.18;100.00;46693.59;4933405;29;20039;-72
2022/01/29 08:48:21;;;;;;;12.60;5.67;;;;;;;-145.18;100.00;46701.41;4932450;29;20035;-71
2022/01/29 08:50:47;;;;;;;15.37;5.90;;;;;;;-145.18;100.00;46707.28;4933284;29;20036;-71
2022/01/29 08:53:14;;;;;;;18.50;5.57;;;;;;;-145.18;100.00;46709.22;4933080;29;20785;-72
2022/01/29 08:55:39;;;;;;;13.53;5.60;;;;;;;-145.18;100.00;46697.50;4933078;29;20042;-72
2022/01/29 08:58:07;;;;;;;13.33;4.87;;;;;;;-145.18;100.00;46703.38;4932465;29;20271;-72
2022/01/29 09:00:34;;;;;;;15.50;5.70;;;;;;;-145.18;100.00;46707.28;4932569;29;20032;-72
2022/01/29 09:02:59;;;;;;;16.20;5.77;;;;;;;-145.18;100.00;46707.28;4932163;29;20317;-72
2022/01/29 09:05:25;;;;;;;8.73;3.93;;;;;;;-145.18;100.00;46703.38;4932827;29;20357;-72
2022/01/29 09:07:50;;;;;;;12.17;4.20;;;;;;;-145.18;100.00;46705.31;4932685;29;20044;-72
2022/01/29 09:10:16;;;;;;;11.10;3.63;;;;;;;-145.18;100.00;46715.09;4932227;29;20707;-72
2022/01/29 09:12:41;;;;;;;16.03;4.20;;;;;;;-145.18;100.00;46715.09;4932637;29;20035;-72
2022/01/29 09:15:07;;;;;;;9.83;3.43;;;;;;;-145.18;100.00;46707.28;4932033;29;20059;-72
2022/01/29 09:17:33;;;;;;;11.47;4.20;;;;;;;-145.18;100.00;46711.19;4932627;29;20043;-72
2022/01/29 09:19:59;;;;;;;13.67;3.70;;;;;;;-145.18;100.00;46707.28;4914888;29;20048;-72
2022/01/29 09:22:24;;;;;;;12.93;3.43;;;;;;;-145.18;100.00;46705.31;4932564;29;20278;-71
2022/01/29 09:24:50;;;;;;;15.43;4.13;;;;;;;-145.18;100.00;46713.13;4931633;29;20092;-72
2022/01/29 09:27:15;;;;;;;12.37;5.27;;;;;;;-145.18;100.00;46707.28;4946840;29;20055;-72
2022/01/29 09:29:40;;;;;;;13.57;3.87;;;;;;;-145.18;100.00;46713.13;4931893;29;20453;-72
2022/01/29 09:32:06;;;;;;;7.23;3.47;;;;;;;-145.18;100.00;46719.00;4932306;29;20032;-72
2022/01/29 09:34:32;;;;;;;10.50;3.30;;;;;;;-145.18;100.00;46719.00;4931745;29;20036;-72
2022/01/29 09:36:57;;;;;;;10.67;3.23;;;;;;;-145.18;100.00;46717.03;4932477;29;20423;-72
2022/01/29 09:39:22;;;;;;;11.53;3.60;;;;;;;-145.18;100.00;46715.09;4931956;29;20032;-72
2022/01/29 09:41:48;;;;;;;6.63;2.90;;;;;;;-145.18;100.00;46717.03;4932030;29;20047;-72
2022/01/29 09:44:14;;;;;;;9.77;3.97;;;;;;;-145.18;100.00;46713.13;4931050;29;20039;-72
2022/01/29 09:46:40;;;;;;;8.77;4.00;;;;;;;-145.18;100.00;46715.09;4932168;29;20043;-72
2022/01/29 09:49:06;;;;;;;14.10;3.33;;;;;;;-145.18;100.00;46720.94;4931513;29;20067;-72
2022/01/29 09:51:32;;;;;;;12.23;4.00;;;;;;;-145.18;100.00;46719.00;4932296;29;20770;-72
2022/01/29 09:53:58;;;;;;;8.50;3.37;;;;;;;-145.18;100.00;46713.13;4931768;29;20044;-72
2022/01/29 09:56:23;;;;;;;9.90;3.37;;;;;;;-145.18;100.00;46715.09;4931613;29;20285;-72
2022/01/29 09:58:49;;;;;;;10.43;3.50;;;;;;;-145.18;100.00;46713.13;4931529;29;20044;-72
2022/01/29 10:01:16;;;;;;;12.07;3.20;;;;;;;-145.18;100.00;46703.38;4931654;29;20496;-72
2022/01/29 10:03:41;;;;;;;11.87;3.27;;;;;;;-145.18;100.00;46701.41;4930865;29;20285;-72
2022/01/29 10:06:13;;;;;;;12.90;3.23;;;;;;;-145.18;100.00;46695.56;4931259;29;20270;-72
2022/01/29 10:08:42;;;;;;;14.53;2.83;;;;;;;-145.18;100.00;46676.03;4930989;29;20052;-72
2022/01/29 10:11:22;;;;;;;9.73;2.83;;;;;;;-145.18;100.00;46677.97;4930615;29;20309;-71
2022/01/29 10:13:48;;;;;;;7.73;2.60;;;;;;;-145.18;100.00;46677.97;4930046;29;20282;-72
2022/01/29 10:16:23;;;;;;;13.07;2.80;;;;;;;-145.18;100.00;46656.50;4929151;29;20620;-72
2022/01/29 10:19:06;;;;;;;12.10;2.80;;;;;;;-145.18;100.00;46636.94;4930505;29;20044;-72
2022/01/29 10:21:36;;;;;;;5.33;1.80;;;;;;;-145.18;100.00;46623.28;4931359;29;20278;-72
2022/01/29 10:24:06;;;;;;;8.20;2.17;;;;;;;-145.18;100.00;46611.56;4930798;29;20282;-72
2022/01/29 10:26:40;;;;;;;17.60;3.53;;;;;;;-145.18;100.00;46613.50;4931117;29;20270;-72
2022/01/29 10:29:15;;;;;;;11.57;2.07;;;;;;;-145.18;100.00;46592.03;4930680;29;20779;-72
2022/01/29 10:31:49;;;;;;;6.32;1.73;;;;;;;-145.18;100.00;46588.13;4935498;29;20706;-72
2022/01/29 10:34:34;;;;;;;9.37;1.97;;;;;;;-145.18;100.00;46574.44;4944216;29;20039;-73
2022/01/29 10:37:13;;;;;;;11.20;2.07;;;;;;;-145.18;100.00;46580.31;4943816;28;20353;-73
2022/01/29 10:39:39;;;;;;;3.97;1.50;;;;;;;-145.18;100.00;46578.34;4939701;29;20707;-73
2022/01/29 10:42:25;;;;;;;2.63;0.90;;;;;;;-145.18;100.00;46574.44;4949517;29;20273;-72
2022/01/29 10:44:52;;;;;;;8.52;1.20;;;;;;;-145.18;100.00;46572.50;4949673;29;20285;-72
2022/01/29 10:47:19;;;;;;;6.93;1.83;;;;;;;-145.18;100.00;46582.25;4946332;29;20051;-73
2022/01/29 10:49:57;;;;;;;14.83;2.03;;;;;;;-145.18;100.00;46584.22;4937163;29;20322;-73
2022/01/29 10:52:31;;;;;;;3.70;1.77;;;;;;;-145.18;100.00;46590.06;4913315;29;20036;-73
2022/01/29 10:54:59;;;;;;;6.23;1.30;;;;;;;-145.18;100.00;46588.13;4930249;29;20334;-73
2022/01/29 10:57:35;;;;;;;11.27;1.53;;;;;;;-145.18;100.00;46595.94;4919262;29;20278;-73
2022/01/29 11:00:04;;;;;;;6.55;1.50;;;;;;;-145.18;100.00;46592.03;4934796;29;20278;-73
2022/01/29 11:02:30;;;;;;;10.47;2.07;;;;;;;-145.18;100.00;46590.06;4930234;29;20378;-73
2022/01/29 11:04:57;;;;;;;10.00;1.53;;;;;;;-145.18;100.00;46588.13;4929450;29;20333;-73
2022/01/29 11:07:28;;;;;;;8.47;1.63;;;;;;;-145.18;100.00;46592.03;4930041;29;20317;-73